Terminal Aerodrome Forecast
Issued by NWS Cleveland, OH

Home | Current Version | Previous Version | Text Only | Print | Product List | Glossary Off
Versions: 1 2 3 4 5 6 7 8 9 10 11 12 13 14 15 16 17

000
FTUS41 KCLE 071141
TAFMFD
TAF
KMFD 071141Z 0712/0812 25012G18KT P6SM BKN015
      TEMPO 0712/0715 SCT015
     FM071500 24012G18KT P6SM SCT015 BKN120
     FM080300 24010KT P6SM OVC025=

USA.gov is the U.S. government's official web portal to all federal, state and local government web resources and services.